SWA3354 KMYR-KBNA
Flight info
| Callsign | SWA3354 |
|---|---|
| Flight time | N/A |
| Altitude | 34000 |
| Route | FLO ACERB JLENA VXV EDDDY SWFFT3 |
| Aircraft | B738/M-SDE2E3FGHIRWXY/LB1 |
Departure
| Time | 2026-04-26 18:36 |
|---|---|
| Airport | Myrtle Beach International Airport (KMYR) |
Arrival
| Time | N/A |
|---|---|
| Airport | Nashville International Airport (KBNA) |
| Time | Latitude | Longitude | Altitude | Speed | Heading |
|---|---|---|---|---|---|
| 2026-04-26 18:14 | 33.68334 | -78.92432 | 26 ft | 0 kts | 122° |
| 2026-04-26 18:21 | 33.68337 | -78.92437 | 26 ft | 1 kts | 114° |
| 2026-04-26 18:21 | 33.68339 | -78.92454 | 26 ft | 2 kts | 98° |
| 2026-04-26 18:21 | 33.68342 | -78.92471 | 26 ft | 2 kts | 104° |
| 2026-04-26 18:22 | 33.68345 | -78.92489 | 26 ft | 2 kts | 101° |
| 2026-04-26 18:22 | 33.68351 | -78.92503 | 26 ft | 1 kts | 150° |
| 2026-04-26 18:22 | 33.68359 | -78.92506 | 26 ft | 0 kts | 180° |
| 2026-04-26 18:22 | 33.68364 | -78.92506 | 26 ft | 0 kts | 172° |
| 2026-04-26 18:28 | 33.68363 | -78.92506 | 26 ft | 0 kts | 172° |
| 2026-04-26 18:29 | 33.68337 | -78.92509 | 26 ft | 6 kts | 200° |
| 2026-04-26 18:29 | 33.68277 | -78.92552 | 25 ft | 13 kts | 189° |
| 2026-04-26 18:29 | 33.68190 | -78.92580 | 25 ft | 14 kts | 258° |
| 2026-04-26 18:29 | 33.68148 | -78.92673 | 25 ft | 13 kts | 178° |
| 2026-04-26 18:30 | 33.68037 | -78.92646 | 25 ft | 20 kts | 168° |
| 2026-04-26 18:30 | 33.67867 | -78.92602 | 25 ft | 27 kts | 168° |
| 2026-04-26 18:30 | 33.67680 | -78.92554 | 25 ft | 27 kts | 166° |
| 2026-04-26 18:30 | 33.67494 | -78.92512 | 25 ft | 27 kts | 168° |
| 2026-04-26 18:31 | 33.67308 | -78.92466 | 25 ft | 26 kts | 169° |
| 2026-04-26 18:31 | 33.67126 | -78.92418 | 25 ft | 23 kts | 162° |
| 2026-04-26 18:31 | 33.66984 | -78.92340 | 24 ft | 22 kts | 169° |
| 2026-04-26 18:31 | 33.66830 | -78.92303 | 24 ft | 22 kts | 169° |
| 2026-04-26 18:32 | 33.66755 | -78.92300 | 24 ft | 8 kts | 219° |
| 2026-04-26 18:32 | 33.66734 | -78.92367 | 24 ft | 10 kts | 258° |
| 2026-04-26 18:32 | 33.66717 | -78.92464 | 24 ft | 13 kts | 258° |
| 2026-04-26 18:32 | 33.66737 | -78.92522 | 24 ft | 8 kts | 345° |
| 2026-04-26 18:33 | 33.66780 | -78.92533 | 24 ft | 5 kts | 348° |
| 2026-04-26 18:33 | 33.66786 | -78.92534 | 24 ft | 1 kts | 348° |
| 2026-04-26 18:33 | 33.66806 | -78.92539 | 24 ft | 4 kts | 348° |
| 2026-04-26 18:33 | 33.66851 | -78.92550 | 24 ft | 7 kts | 346° |
| 2026-04-26 18:34 | 33.66879 | -78.92557 | 25 ft | 5 kts | 347° |
| 2026-04-26 18:34 | 33.66900 | -78.92564 | 25 ft | 0 kts | 348° |
| 2026-04-26 18:34 | 33.66913 | -78.92567 | 25 ft | 3 kts | 348° |
| 2026-04-26 18:34 | 33.66928 | -78.92570 | 25 ft | 0 kts | 348° |
| 2026-04-26 18:35 | 33.66942 | -78.92574 | 25 ft | 3 kts | 348° |
| 2026-04-26 18:35 | 33.67011 | -78.92590 | 25 ft | 30 kts | 347° |
| 2026-04-26 18:35 | 33.67459 | -78.92703 | 26 ft | 99 kts | 348° |
| 2026-04-26 18:35 | 33.68336 | -78.92921 | 26 ft | 156 kts | 348° |
| 2026-04-26 18:36 | 33.69463 | -78.93208 | 506 ft | 166 kts | 351° |
| 2026-04-26 18:36 | 33.70598 | -78.93484 | 1178 ft | 169 kts | 351° |
| 2026-04-26 18:36 | 33.71744 | -78.93749 | 1729 ft | 170 kts | 353° |
| 2026-04-26 18:36 | 33.72937 | -78.94031 | 2107 ft | 184 kts | 352° |
| 2026-04-26 18:37 | 33.74273 | -78.94344 | 2496 ft | 199 kts | 351° |
| 2026-04-26 18:37 | 33.75640 | -78.94652 | 3013 ft | 208 kts | 352° |
| 2026-04-26 18:37 | 33.77124 | -78.95255 | 2987 ft | 239 kts | 332° |
| 2026-04-26 18:37 | 33.78435 | -78.96606 | 2991 ft | 258 kts | 313° |
| 2026-04-26 18:38 | 33.79527 | -78.98312 | 2980 ft | 262 kts | 309° |
| 2026-04-26 18:38 | 33.80634 | -79.00149 | 3239 ft | 276 kts | 309° |
| 2026-04-26 18:38 | 33.81752 | -79.01936 | 4205 ft | 268 kts | 309° |
| 2026-04-26 18:38 | 33.82894 | -79.03702 | 4942 ft | 269 kts | 310° |
| 2026-04-26 18:39 | 33.84061 | -79.05476 | 5655 ft | 271 kts | 310° |
| 2026-04-26 18:39 | 33.85220 | -79.07233 | 6335 ft | 274 kts | 309° |
| 2026-04-26 18:39 | 33.86400 | -79.09023 | 7082 ft | 275 kts | 309° |